Time;durP1;ratioP1;P1;durP2;ratioP2;P2;SDS_P1;SDS_P2;PMS_P1;PMS_P2;Temp;Humidity;BMP_temperature;BMP_pressure;BME280_temperature;BME280_humidity;BME280_pressure;Samples;Min_cycle;Max_cycle;Signal;HPM_P1;HPM_P2
2022/09/19 00:01:22;;;;;;;7.73;4.83;;;8.30;99.90;;;;;;5053232;28;20451;-70
2022/09/19 00:03:53;;;;;;;10.13;4.87;;;8.30;99.90;;;;;;5053050;28;20469;-70
2022/09/19 00:06:20;;;;;;;6.20;4.53;;;8.30;99.90;;;;;;5052606;28;20966;-70
2022/09/19 00:08:47;;;;;;;7.87;5.10;;;8.30;99.90;;;;;;5053041;28;20539;-70
2022/09/19 00:11:17;;;;;;;5.30;4.80;;;8.30;99.90;;;;;;5052780;28;20480;-71
2022/09/19 00:13:47;;;;;;;8.60;5.13;;;8.30;99.90;;;;;;5053149;28;20524;-71
2022/09/19 00:16:18;;;;;;;7.33;5.03;;;8.30;99.90;;;;;;5052574;28;21015;-71
2022/09/19 00:18:44;;;;;;;8.90;5.33;;;8.30;99.90;;;;;;5052932;28;20509;-71
2022/09/19 00:21:11;;;;;;;11.37;5.80;;;8.40;99.90;;;;;;5052394;28;20441;-71
2022/09/19 00:26:22;;;;;;;13.10;6.23;;;8.40;99.90;;;;;;5052120;28;20433;-70
2022/09/19 00:28:50;;;;;;;7.73;6.10;;;8.50;99.90;;;;;;5051899;28;20453;-70
2022/09/19 00:31:18;;;;;;;11.73;5.33;;;8.60;99.90;;;;;;5051444;28;20482;-70
2022/09/19 00:33:47;;;;;;;9.27;6.37;;;8.60;99.90;;;;;;5051907;28;20475;-70
2022/09/19 00:36:14;;;;;;;10.30;5.20;;;8.60;99.90;;;;;;5051635;28;20531;-70
2022/09/19 00:38:41;;;;;;;10.23;5.60;;;8.70;99.90;;;;;;5052011;28;20517;-70
2022/09/19 00:41:09;;;;;;;10.00;5.37;;;8.70;99.90;;;;;;5051825;28;20448;-70
2022/09/19 00:43:49;;;;;;;8.07;5.60;;;8.80;99.90;;;;;;5051772;28;20467;-70
2022/09/19 00:46:18;;;;;;;6.67;5.40;;;8.80;99.90;;;;;;5051002;28;20462;-70
2022/09/19 00:48:48;;;;;;;6.20;4.97;;;8.80;99.90;;;;;;5051981;28;20473;-70
2022/09/19 00:51:21;;;;;;;11.10;5.67;;;8.80;99.90;;;;;;5051673;28;20480;-70
2022/09/19 00:53:49;;;;;;;10.43;5.60;;;8.80;99.90;;;;;;5051931;28;20878;-70
2022/09/19 00:56:18;;;;;;;10.77;5.57;;;8.90;99.90;;;;;;5051246;28;20898;-69
2022/09/19 00:58:46;;;;;;;7.97;5.60;;;8.90;99.90;;;;;;5051407;28;20456;-70
2022/09/19 01:01:14;;;;;;;11.77;6.20;;;8.90;99.90;;;;;;5051616;28;20449;-70
2022/09/19 01:03:45;;;;;;;9.20;5.60;;;9.00;99.90;;;;;;5051650;28;20537;-70
2022/09/19 01:06:26;;;;;;;8.80;5.23;;;8.90;99.90;;;;;;5051141;28;20854;-70
2022/09/19 01:09:22;;;;;;;8.47;5.97;;;8.90;99.90;;;;;;5051308;28;20463;-70
2022/09/19 01:11:59;;;;;;;7.13;5.50;;;8.90;99.90;;;;;;5051201;28;21048;-70
2022/09/19 01:14:41;;;;;;;10.47;5.37;;;8.90;99.90;;;;;;5051033;28;21012;-70
2022/09/19 01:17:16;;;;;;;15.10;6.60;;;8.90;99.90;;;;;;5050916;28;20524;-69
2022/09/19 01:20:17;;;;;;;12.57;6.13;;;8.90;99.90;;;;;;5051206;28;20455;-70
2022/09/19 01:22:56;;;;;;;10.03;6.80;;;9.00;99.90;;;;;;5051218;28;20446;-70
2022/09/19 01:28:51;;;;;;;15.43;6.30;;;9.00;99.90;;;;;;5052492;28;20441;-70
2022/09/19 01:31:26;;;;;;;11.73;6.30;;;9.00;99.90;;;;;;5052125;28;20491;-70
2022/09/19 01:34:02;;;;;;;11.60;7.07;;;9.00;99.90;;;;;;5051822;28;20509;-70
2022/09/19 01:36:33;;;;;;;14.20;6.67;;;9.00;99.90;;;;;;5052126;28;20529;-70
2022/09/19 01:39:02;;;;;;;11.57;6.50;;;9.10;99.90;;;;;;5052317;28;20454;-70
2022/09/19 01:41:30;;;;;;;9.83;6.20;;;9.10;99.90;;;;;;5052161;28;20479;-70
2022/09/19 01:44:03;;;;;;;11.57;6.40;;;9.10;99.90;;;;;;5050262;28;20855;-70
2022/09/19 01:46:40;;;;;;;13.90;6.40;;;9.20;99.90;;;;;;5051282;28;20975;-70
2022/09/19 01:49:18;;;;;;;12.97;6.40;;;9.20;99.90;;;;;;5050953;28;20468;-70
2022/09/19 01:51:51;;;;;;;11.60;6.00;;;9.20;99.90;;;;;;5051172;28;20534;-70
2022/09/19 01:54:31;;;;;;;16.30;7.50;;;9.20;99.90;;;;;;5051218;28;20880;-71
2022/09/19 01:57:08;;;;;;;10.47;6.80;;;9.20;99.90;;;;;;5051121;28;20546;-71
2022/09/19 02:00:01;;;;;;;16.93;7.20;;;9.30;99.90;;;;;;5051442;28;20455;-71
2022/09/19 02:02:35;;;;;;;11.87;7.30;;;9.30;99.90;;;;;;5051081;28;20449;-71
2022/09/19 02:05:08;;;;;;;12.37;6.30;;;9.30;99.90;;;;;;5051109;28;20986;-71
2022/09/19 02:07:44;;;;;;;20.13;7.43;;;9.30;99.90;;;;;;5043590;28;20451;-71
2022/09/19 02:10:17;;;;;;;19.43;7.90;;;9.30;99.90;;;;;;5051311;28;20535;-71
2022/09/19 02:12:50;;;;;;;11.23;7.17;;;9.30;99.90;;;;;;5051063;28;21171;-71
2022/09/19 02:15:20;;;;;;;15.43;7.60;;;9.30;99.90;;;;;;5050933;28;20464;-71
2022/09/19 02:17:51;;;;;;;14.57;7.20;;;9.30;99.90;;;;;;5051048;28;20452;-71
2022/09/19 02:20:23;;;;;;;12.00;7.23;;;9.30;99.90;;;;;;5051237;28;20514;-71
2022/09/19 02:22:53;;;;;;;22.70;6.87;;;9.30;99.90;;;;;;5050978;28;20943;-71
2022/09/19 02:25:25;;;;;;;12.37;6.63;;;9.30;99.90;;;;;;5050709;28;20457;-71
2022/09/19 02:27:59;;;;;;;14.20;6.90;;;9.30;99.90;;;;;;5043827;28;20457;-71
2022/09/19 02:30:28;;;;;;;9.77;6.60;;;9.30;99.90;;;;;;5050636;28;20464;-71
2022/09/19 02:32:55;;;;;;;8.30;6.53;;;9.40;99.90;;;;;;5050415;28;21003;-71
2022/09/19 02:35:32;;;;;;;16.03;6.80;;;9.40;99.90;;;;;;5050890;28;20479;-71
2022/09/19 02:38:06;;;;;;;11.30;6.03;;;9.30;99.90;;;;;;5044534;28;20799;-71
2022/09/19 02:40:37;;;;;;;12.77;6.77;;;9.40;99.90;;;;;;5050815;28;20455;-71
2022/09/19 02:43:14;;;;;;;17.63;7.73;;;9.40;99.90;;;;;;5050677;28;20476;-71
2022/09/19 02:45:46;;;;;;;17.53;6.83;;;9.40;99.90;;;;;;5050452;28;20463;-71
2022/09/19 02:48:19;;;;;;;13.27;6.70;;;9.40;99.90;;;;;;5050950;28;20460;-71
2022/09/19 02:50:58;;;;;;;20.30;7.57;;;9.40;99.90;;;;;;5050569;28;20492;-71
2022/09/19 02:53:29;;;;;;;13.67;6.93;;;9.40;99.90;;;;;;5050434;28;20495;-71
2022/09/19 02:55:59;;;;;;;12.50;6.93;;;9.40;99.90;;;;;;5054647;28;20460;-71
2022/09/19 02:58:28;;;;;;;13.70;7.80;;;9.40;99.90;;;;;;5054795;28;20456;-71
2022/09/19 03:01:03;;;;;;;17.57;6.83;;;9.40;99.90;;;;;;5054964;28;20461;-71
2022/09/19 03:06:21;;;;;;;10.03;6.80;;;9.40;99.90;;;;;;5050247;28;20807;-71
2022/09/19 03:08:52;;;;;;;11.77;7.27;;;9.40;99.90;;;;;;5054658;28;20453;-71
2022/09/19 03:11:22;;;;;;;14.23;7.17;;;9.40;99.90;;;;;;5054699;28;20460;-71
2022/09/19 03:13:49;;;;;;;11.63;7.67;;;9.40;99.90;;;;;;5054262;28;20460;-72
2022/09/19 03:16:20;;;;;;;10.93;7.20;;;9.40;99.90;;;;;;5054287;28;20453;-71
2022/09/19 03:18:48;;;;;;;17.83;8.07;;;9.40;99.90;;;;;;5054467;28;20498;-71
2022/09/19 03:21:21;;;;;;;17.17;8.07;;;9.40;99.90;;;;;;5054221;28;20451;-71
2022/09/19 03:23:50;;;;;;;14.67;7.60;;;9.40;99.90;;;;;;5054068;28;20563;-71
2022/09/19 03:26:21;;;;;;;17.03;8.37;;;9.40;99.90;;;;;;5054132;28;21113;-71
2022/09/19 03:28:48;;;;;;;11.60;7.43;;;9.40;99.90;;;;;;5054281;28;20536;-72
2022/09/19 03:31:17;;;;;;;19.13;8.77;;;9.30;99.90;;;;;;5054268;28;21005;-71
2022/09/19 03:33:46;;;;;;;20.40;7.67;;;9.30;99.90;;;;;;5053573;28;21015;-71
2022/09/19 03:36:13;;;;;;;20.03;8.60;;;9.30;99.90;;;;;;5054186;28;20543;-71
2022/09/19 03:38:44;;;;;;;15.57;7.83;;;9.30;99.90;;;;;;5054075;28;20452;-71
2022/09/19 03:41:11;;;;;;;22.00;7.50;;;9.30;99.90;;;;;;5053656;28;20491;-71
2022/09/19 03:43:38;;;;;;;11.40;7.10;;;9.30;99.90;;;;;;5053668;28;20988;-71
2022/09/19 03:46:05;;;;;;;15.73;7.80;;;9.30;99.90;;;;;;5053706;28;20468;-71
2022/09/19 03:48:34;;;;;;;21.80;8.03;;;9.30;99.90;;;;;;5053944;28;20452;-71
2022/09/19 03:51:01;;;;;;;20.67;8.20;;;9.30;99.90;;;;;;5053791;28;20453;-71
2022/09/19 03:53:28;;;;;;;16.57;7.60;;;9.30;99.90;;;;;;5053698;28;20584;-71
2022/09/19 03:55:56;;;;;;;13.53;8.27;;;9.30;99.90;;;;;;5052957;28;20534;-71
2022/09/19 03:58:23;;;;;;;11.97;7.00;;;9.40;99.90;;;;;;5053524;28;20501;-71
2022/09/19 04:00:50;;;;;;;12.23;7.50;;;9.40;99.90;;;;;;5053452;28;20560;-71
2022/09/19 04:03:17;;;;;;;14.47;7.87;;;9.40;99.90;;;;;;5053592;28;20475;-71
2022/09/19 04:05:45;;;;;;;12.37;7.63;;;9.30;99.90;;;;;;5052303;28;20828;-71
2022/09/19 04:08:13;;;;;;;9.80;7.37;;;9.30;99.90;;;;;;5053328;28;20456;-74
2022/09/19 04:10:42;;;;;;;17.13;7.80;;;9.30;99.90;;;;;;5053508;28;20452;-71
2022/09/19 04:13:09;;;;;;;8.23;7.37;;;9.30;99.90;;;;;;5052950;28;20509;-71
2022/09/19 04:15:36;;;;;;;11.77;7.27;;;9.30;99.90;;;;;;5053199;28;20453;-71
2022/09/19 04:18:03;;;;;;;19.73;7.87;;;9.30;99.90;;;;;;5053064;28;20977;-71
2022/09/19 04:20:30;;;;;;;15.87;7.73;;;9.20;99.90;;;;;;5053346;28;20484;-71
2022/09/19 04:23:00;;;;;;;19.40;8.40;;;9.20;99.90;;;;;;5052688;28;20867;-71
2022/09/19 04:25:34;;;;;;;11.13;7.53;;;9.20;99.90;;;;;;5052983;28;20456;-71
2022/09/19 04:28:03;;;;;;;13.83;8.03;;;9.20;99.90;;;;;;5053013;28;20551;-71
2022/09/19 04:30:31;;;;;;;20.03;8.60;;;9.20;99.90;;;;;;5052238;28;20457;-72
2022/09/19 04:35:46;;;;;;;16.73;7.30;;;9.20;99.90;;;;;;5052383;28;21011;-72
2022/09/19 04:38:17;;;;;;;21.47;9.40;;;9.20;99.90;;;;;;5053351;28;20450;-72
2022/09/19 04:40:45;;;;;;;10.77;7.53;;;9.30;99.90;;;;;;5053410;28;20455;-72
2022/09/19 04:43:13;;;;;;;11.43;7.47;;;9.30;99.90;;;;;;5052951;28;20987;-72
2022/09/19 04:45:42;;;;;;;16.97;7.57;;;9.30;99.90;;;;;;5039936;28;20465;-72
2022/09/19 04:48:09;;;;;;;14.67;7.83;;;9.30;99.90;;;;;;5032828;28;21035;-72
2022/09/19 04:50:37;;;;;;;17.67;8.60;;;9.30;99.90;;;;;;5050984;28;20453;-72
2022/09/19 04:53:05;;;;;;;13.03;8.27;;;9.30;99.90;;;;;;5052381;28;20488;-72
2022/09/19 04:55:33;;;;;;;12.90;7.53;;;9.30;99.90;;;;;;5052816;28;20792;-72
2022/09/19 04:58:01;;;;;;;11.70;7.47;;;9.30;99.90;;;;;;5052932;28;20462;-72
2022/09/19 05:00:40;;;;;;;23.50;7.90;;;9.30;99.90;;;;;;5052365;28;20904;-71
2022/09/19 05:03:08;;;;;;;16.77;8.27;;;9.30;99.90;;;;;;5052840;28;20465;-71
2022/09/19 05:05:36;;;;;;;12.13;8.13;;;9.30;99.90;;;;;;5050527;28;20972;-71
2022/09/19 05:08:05;;;;;;;17.17;9.13;;;9.30;99.90;;;;;;5051402;28;20480;-71
2022/09/19 05:10:33;;;;;;;15.27;9.10;;;9.30;99.90;;;;;;5050138;28;20448;-71
2022/09/19 05:13:00;;;;;;;15.50;9.10;;;9.30;99.90;;;;;;5031737;28;20478;-72
2022/09/19 05:15:27;;;;;;;21.87;9.77;;;9.30;99.90;;;;;;5044307;28;20449;-71
2022/09/19 05:17:55;;;;;;;13.43;8.03;;;9.30;99.90;;;;;;5051616;28;20814;-71
2022/09/19 05:20:25;;;;;;;17.50;9.10;;;9.20;99.90;;;;;;5051591;28;20960;-71
2022/09/19 05:22:54;;;;;;;18.20;9.00;;;9.20;99.90;;;;;;5051341;28;20983;-71
2022/09/19 05:25:21;;;;;;;13.47;8.63;;;9.20;99.90;;;;;;5051273;28;20468;-71
2022/09/19 05:27:50;;;;;;;18.53;8.90;;;9.20;99.90;;;;;;5051995;28;20456;-72
2022/09/19 05:30:17;;;;;;;16.40;8.73;;;9.20;99.90;;;;;;5051439;28;20519;-71
2022/09/19 05:32:44;;;;;;;11.00;7.13;;;9.20;99.90;;;;;;5051290;28;20482;-70
2022/09/19 05:35:11;;;;;;;16.63;8.37;;;9.20;99.90;;;;;;5051193;28;20486;-71
2022/09/19 05:37:40;;;;;;;18.33;7.80;;;9.30;99.90;;;;;;5051756;28;20449;-71
2022/09/19 05:40:10;;;;;;;13.90;7.70;;;9.30;99.90;;;;;;5051078;28;20460;-71
2022/09/19 05:42:41;;;;;;;14.97;7.70;;;9.30;99.90;;;;;;5051817;28;20453;-71
2022/09/19 05:45:11;;;;;;;18.33;8.73;;;9.30;99.90;;;;;;5050548;28;21011;-71
2022/09/19 05:47:40;;;;;;;13.27;7.90;;;9.30;99.90;;;;;;5051303;28;20460;-71
2022/09/19 05:50:08;;;;;;;17.43;8.70;;;9.30;99.90;;;;;;5051153;28;20453;-71
2022/09/19 05:55:19;;;;;;;15.10;7.93;;;9.40;99.90;;;;;;5051029;28;20456;-71
2022/09/19 05:57:51;;;;;;;16.67;8.60;;;9.40;99.90;;;;;;5051130;28;20457;-71
2022/09/19 06:00:19;;;;;;;23.03;8.37;;;9.50;99.90;;;;;;5050381;28;20901;-71
2022/09/19 06:02:53;;;;;;;15.20;8.30;;;9.80;99.90;;;;;;5051212;28;20452;-71
2022/09/19 06:05:20;;;;;;;11.97;7.83;;;10.30;99.90;;;;;;5050897;28;20465;-72
2022/09/19 06:07:47;;;;;;;13.10;7.23;;;10.80;99.90;;;;;;5051155;28;20468;-72
2022/09/19 06:10:14;;;;;;;14.50;7.80;;;11.30;99.90;;;;;;5050332;28;20499;-72
2022/09/19 06:12:40;;;;;;;12.97;7.87;;;11.70;99.90;;;;;;5045670;28;21063;-71
2022/09/19 06:15:08;;;;;;;12.33;7.10;;;12.00;99.90;;;;;;5050710;28;20480;-72
2022/09/19 06:17:36;;;;;;;8.73;6.20;;;12.40;99.90;;;;;;5050499;28;20455;-71
2022/09/19 06:20:03;;;;;;;9.00;6.10;;;12.80;99.90;;;;;;5050818;28;20460;-71
2022/09/19 06:22:30;;;;;;;11.37;7.20;;;13.20;99.90;;;;;;5050885;28;20464;-71
2022/09/19 06:24:57;;;;;;;12.10;6.93;;;13.50;99.90;;;;;;5050389;28;20469;-72
2022/09/19 06:27:24;;;;;;;8.70;5.80;;;13.90;99.90;;;;;;5050078;28;20464;-71
2022/09/19 06:29:51;;;;;;;12.50;6.77;;;14.10;99.90;;;;;;5052840;28;20454;-71
2022/09/19 06:32:18;;;;;;;14.73;7.20;;;13.60;99.90;;;;;;5055273;28;20539;-71
2022/09/19 06:34:46;;;;;;;17.40;7.27;;;13.10;99.90;;;;;;5054311;28;20579;-71
2022/09/19 06:37:12;;;;;;;17.63;8.00;;;12.70;99.90;;;;;;5054070;28;20969;-72
2022/09/19 06:39:39;;;;;;;17.40;7.57;;;12.50;99.90;;;;;;5055351;28;20466;-71
2022/09/19 06:42:07;;;;;;;17.57;7.60;;;12.80;99.90;;;;;;5055065;28;20507;-72
2022/09/19 06:44:34;;;;;;;13.53;7.20;;;13.50;99.90;;;;;;5053790;28;20767;-71
2022/09/19 06:47:01;;;;;;;14.40;7.00;;;14.20;99.90;;;;;;5053788;28;20521;-71
2022/09/19 06:49:27;;;;;;;7.93;5.50;;;14.60;99.90;;;;;;5054839;28;20453;-71
2022/09/19 06:51:56;;;;;;;24.03;7.57;;;14.50;99.90;;;;;;5054866;28;20450;-71
2022/09/19 06:54:24;;;;;;;22.83;6.50;;;14.60;99.90;;;;;;5053769;28;21031;-71
2022/09/19 06:56:51;;;;;;;8.37;5.80;;;14.90;99.90;;;;;;5046488;28;20870;-71
2022/09/19 06:59:18;;;;;;;8.50;6.10;;;15.10;99.90;;;;;;5055145;28;20463;-71
2022/09/19 07:01:45;;;;;;;12.40;6.23;;;15.20;99.90;;;;;;5054489;28;20455;-71
2022/09/19 07:04:12;;;;;;;9.40;6.33;;;15.20;99.90;;;;;;5054490;28;20594;-71
2022/09/19 07:06:39;;;;;;;7.97;5.70;;;15.40;99.90;;;;;;5053731;28;20495;-71
2022/09/19 07:09:07;;;;;;;10.07;6.13;;;15.60;99.90;;;;;;5054589;28;20460;-71
2022/09/19 07:11:35;;;;;;;7.70;5.70;;;15.80;99.90;;;;;;5053912;28;20481;-72
2022/09/19 07:14:03;;;;;;;10.93;5.90;;;16.30;99.90;;;;;;5053144;28;20558;-72
2022/09/19 07:16:29;;;;;;;10.20;5.43;;;16.50;99.90;;;;;;5052357;28;20445;-72
2022/09/19 07:18:56;;;;;;;10.43;5.73;;;16.80;99.90;;;;;;5053525;28;20472;-72
2022/09/19 07:21:23;;;;;;;11.77;5.40;;;16.30;99.90;;;;;;5053048;28;20535;-72
2022/09/19 07:23:50;;;;;;;7.60;5.03;;;15.90;99.90;;;;;;5053319;28;21004;-72
2022/09/19 07:26:18;;;;;;;7.60;5.97;;;15.50;99.90;;;;;;5052854;28;20781;-72
2022/09/19 07:28:45;;;;;;;11.80;5.93;;;15.20;99.90;;;;;;5053487;28;20457;-72
2022/09/19 07:31:11;;;;;;;12.50;6.57;;;14.70;99.90;;;;;;5053407;28;20460;-72
2022/09/19 07:33:38;;;;;;;19.40;6.10;;;14.30;99.90;;;;;;5053254;28;20485;-72
2022/09/19 07:36:07;;;;;;;8.67;5.97;;;14.30;99.90;;;;;;5052941;28;20457;-72
2022/09/19 07:38:35;;;;;;;9.17;5.53;;;14.70;99.90;;;;;;5053369;28;20449;-72
2022/09/19 07:41:01;;;;;;;9.07;5.83;;;14.80;99.90;;;;;;5045280;28;20456;-72
2022/09/19 07:43:29;;;;;;;13.90;6.30;;;14.50;99.90;;;;;;5053327;28;20464;-72
2022/09/19 07:45:56;;;;;;;16.93;6.27;;;14.20;99.90;;;;;;5052765;28;20825;-72
2022/09/19 07:48:23;;;;;;;9.23;5.87;;;14.00;99.90;;;;;;5052585;28;20457;-72
2022/09/19 07:50:50;;;;;;;7.20;5.80;;;13.60;99.90;;;;;;5052274;28;20948;-73
2022/09/19 07:53:18;;;;;;;8.73;6.70;;;13.20;99.90;;;;;;5052766;28;20485;-73
2022/09/19 07:55:49;;;;;;;10.13;6.43;;;13.00;99.90;;;;;;5050682;28;20991;-73
2022/09/19 07:58:15;;;;;;;11.50;7.47;;;12.90;99.90;;;;;;5053685;28;20455;-73
2022/09/19 08:00:45;;;;;;;13.80;7.20;;;12.80;99.90;;;;;;5053401;28;20548;-74
2022/09/19 08:03:13;;;;;;;14.77;7.10;;;12.80;99.90;;;;;;5052994;28;20475;-74
2022/09/19 08:05:42;;;;;;;7.93;6.90;;;12.60;99.90;;;;;;5050221;28;20449;-73
2022/09/19 08:08:10;;;;;;;16.00;7.30;;;12.50;99.90;;;;;;5053164;28;21113;-73
2022/09/19 08:10:38;;;;;;;16.90;7.40;;;12.60;99.90;;;;;;5052992;28;20548;-73
2022/09/19 08:13:06;;;;;;;13.97;7.57;;;12.60;99.90;;;;;;5052978;28;20503;-73
2022/09/19 08:15:35;;;;;;;10.10;7.43;;;12.80;99.90;;;;;;5053091;28;20483;-74
2022/09/19 08:18:04;;;;;;;11.70;6.80;;;13.00;99.90;;;;;;5052902;28;20457;-74
2022/09/19 08:20:34;;;;;;;17.10;8.30;;;13.00;99.90;;;;;;5048782;28;20456;-74
2022/09/19 08:23:02;;;;;;;10.80;7.57;;;13.00;99.90;;;;;;5053326;28;20454;-73
2022/09/19 08:25:32;;;;;;;18.00;7.13;;;12.90;99.90;;;;;;5052535;28;20444;-73
2022/09/19 08:27:59;;;;;;;9.03;6.10;;;13.00;99.90;;;;;;5052852;28;20488;-73
2022/09/19 08:30:27;;;;;;;11.20;6.23;;;13.00;99.90;;;;;;5052879;28;20455;-74
2022/09/19 08:32:55;;;;;;;12.50;6.30;;;13.10;99.90;;;;;;5048271;28;20876;-74
2022/09/19 08:35:24;;;;;;;9.00;5.90;;;13.10;99.90;;;;;;5052867;28;20490;-74
2022/09/19 08:37:55;;;;;;;13.57;5.90;;;13.10;99.90;;;;;;5053175;28;20454;-73
2022/09/19 08:40:26;;;;;;;9.20;6.63;;;13.00;99.90;;;;;;5050442;28;20446;-74
2022/09/19 08:43:04;;;;;;;10.83;6.47;;;13.30;99.90;;;;;;5051852;28;20444;-74
2022/09/19 08:45:42;;;;;;;9.10;5.40;;;14.00;99.90;;;;;;5046366;28;20453;-74
2022/09/19 08:48:14;;;;;;;6.40;5.77;;;14.60;99.90;;;;;;5052767;28;20790;-74
2022/09/19 08:50:49;;;;;;;8.63;6.13;;;14.70;99.90;;;;;;5048007;28;20533;-74
2022/09/19 08:53:27;;;;;;;8.73;5.70;;;14.60;99.90;;;;;;5051813;28;20480;-73
2022/09/19 08:55:59;;;;;;;11.57;5.10;;;15.00;99.90;;;;;;5048594;28;21294;-74
2022/09/19 08:58:27;;;;;;;11.13;5.30;;;15.60;99.90;;;;;;5045219;28;20450;-73
2022/09/19 09:00:55;;;;;;;10.40;5.50;;;15.50;99.90;;;;;;5052340;28;20453;-73
2022/09/19 09:03:30;;;;;;;6.60;4.90;;;15.20;99.90;;;;;;5052067;28;20469;-74
2022/09/19 09:06:04;;;;;;;7.87;5.30;;;15.20;99.90;;;;;;5051695;28;20464;-74
2022/09/19 09:08:44;;;;;;;12.30;5.53;;;15.50;99.90;;;;;;5051865;28;20462;-74
2022/09/19 09:11:18;;;;;;;10.13;5.87;;;15.80;99.90;;;;;;5052217;28;20457;-74
2022/09/19 09:13:55;;;;;;;10.30;5.40;;;15.90;99.90;;;;;;5047354;28;20571;-74
2022/09/19 09:16:34;;;;;;;9.03;4.90;;;16.30;99.90;;;;;;5051811;28;20972;-74
2022/09/19 09:19:17;;;;;;;12.67;6.10;;;16.60;99.90;;;;;;5052390;28;20478;-73
2022/09/19 09:21:59;;;;;;;14.43;5.30;;;16.50;99.90;;;;;;5046094;28;20457;-73
2022/09/19 09:24:31;;;;;;;9.30;5.60;;;16.00;99.90;;;;;;5051739;28;20498;-73
2022/09/19 09:27:01;;;;;;;10.40;5.40;;;15.80;99.90;;;;;;5051480;28;20474;-73
2022/09/19 09:29:32;;;;;;;9.90;5.40;;;15.50;99.90;;;;;;5051978;28;20453;-73
2022/09/19 09:32:03;;;;;;;12.57;6.10;;;15.10;99.90;;;;;;5051919;28;20960;-73
2022/09/19 09:34:40;;;;;;;13.37;6.23;;;14.80;99.90;;;;;;5051163;28;20489;-73
2022/09/19 09:37:20;;;;;;;8.10;6.63;;;14.80;99.90;;;;;;5051054;28;20799;-74
2022/09/19 09:39:59;;;;;;;10.73;5.90;;;14.90;99.90;;;;;;5047049;28;20542;-73
2022/09/19 09:42:32;;;;;;;12.27;6.60;;;14.80;99.90;;;;;;5051655;28;20488;-74
2022/09/19 09:45:05;;;;;;;6.80;5.87;;;14.60;99.90;;;;;;5051491;28;20469;-74
2022/09/19 09:47:43;;;;;;;7.77;5.97;;;14.50;99.90;;;;;;5051396;28;20468;-74
2022/09/19 09:50:26;;;;;;;16.60;6.67;;;14.40;99.90;;;;;;5051386;28;20898;-74
2022/09/19 09:53:05;;;;;;;10.60;5.97;;;14.80;99.90;;;;;;5044855;28;20567;-73
2022/09/19 09:58:39;;;;;;;7.50;5.40;;;15.70;99.90;;;;;;5049565;28;20431;-74
2022/09/19 10:04:14;;;;;;;7.60;5.80;;;16.40;99.90;;;;;;5044686;28;20468;-73
2022/09/19 10:06:48;;;;;;;10.93;5.43;;;16.90;99.90;;;;;;5050729;28;20515;-74
2022/09/19 10:09:22;;;;;;;7.43;5.00;;;17.30;99.90;;;;;;5051456;28;20427;-73
2022/09/19 10:11:56;;;;;;;9.43;4.97;;;17.50;99.90;;;;;;5050950;28;20449;-73
2022/09/19 10:14:28;;;;;;;10.63;4.70;;;17.70;99.90;;;;;;5051118;28;20472;-73
2022/09/19 10:17:01;;;;;;;9.70;4.47;;;17.90;99.90;;;;;;5050710;28;20424;-73
2022/09/19 10:19:31;;;;;;;6.47;4.20;;;18.10;99.90;;;;;;5050562;28;20957;-73
2022/09/19 10:21:59;;;;;;;10.33;4.37;;;18.30;99.90;;;;;;5051197;28;20428;-73
2022/09/19 10:24:45;;;;;;;8.30;3.87;;;18.10;99.90;;;;;;5050740;28;21003;-73
2022/09/19 10:27:12;;;;;;;6.77;4.70;;;18.00;99.90;;;;;;5050676;28;20511;-73
2022/09/19 10:29:51;;;;;;;10.57;3.93;;;17.60;99.90;;;;;;5050870;28;20428;-73
2022/09/19 10:32:19;;;;;;;8.23;4.40;;;17.30;99.90;;;;;;5050971;28;20939;-73
2022/09/19 10:34:49;;;;;;;10.90;4.13;;;17.30;99.90;;;;;;5050766;28;20459;-73
2022/09/19 10:37:17;;;;;;;11.73;3.50;;;17.40;99.90;;;;;;5051039;28;20481;-73
2022/09/19 10:39:48;;;;;;;7.03;3.50;;;17.60;99.90;;;;;;5050491;28;20452;-73
2022/09/19 10:42:30;;;;;;;5.43;2.90;;;17.60;99.90;;;;;;5050237;28;20432;-73
2022/09/19 10:44:58;;;;;;;6.10;3.00;;;17.90;99.90;;;;;;5046840;28;21047;-72
2022/09/19 10:47:27;;;;;;;8.20;3.13;;;18.30;99.90;;;;;;5050839;28;20832;-72
2022/09/19 10:50:01;;;;;;;7.67;3.40;;;18.60;99.90;;;;;;5045026;28;20453;-74
2022/09/19 10:52:33;;;;;;;9.53;3.33;;;19.00;99.90;;;;;;5050246;28;20435;-73
2022/09/19 10:55:06;;;;;;;7.13;2.90;;;19.30;99.90;;;;;;5050920;28;20459;-73
2022/09/19 10:57:44;;;;;;;4.63;3.00;;;19.60;99.90;;;;;;5051060;28;20526;-72
2022/09/19 11:00:25;;;;;;;13.40;3.93;;;19.80;99.90;;;;;;5050188;28;20956;-73
2022/09/19 11:03:00;;;;;;;12.43;3.70;;;19.90;99.90;;;;;;5050585;28;20428;-73
2022/09/19 11:05:30;;;;;;;4.60;3.07;;;19.60;99.90;;;;;;5050711;28;20423;-73
2022/09/19 11:07:59;;;;;;;5.50;3.13;;;19.40;99.90;;;;;;5051033;28;20485;-73
2022/09/19 11:10:46;;;;;;;4.57;3.20;;;19.40;99.90;;;;;;5050440;28;20451;-73
2022/09/19 11:13:14;;;;;;;8.83;3.50;;;19.20;99.90;;;;;;5050395;28;20439;-73
2022/09/19 11:15:58;;;;;;;6.60;3.20;;;19.30;99.90;;;;;;5052160;28;20477;-73
2022/09/19 11:18:32;;;;;;;8.30;3.10;;;19.50;99.90;;;;;;5053984;28;20445;-72
2022/09/19 11:21:07;;;;;;;6.90;2.87;;;19.80;99.90;;;;;;5053802;28;20967;-72
2022/09/19 11:24:16;;;;;;;14.50;3.43;;;19.80;99.90;;;;;;5054185;28;20478;-72
2022/09/19 11:27:02;;;;;;;12.20;2.77;;;19.50;99.90;;;;;;5037481;28;20841;-72
2022/09/19 11:29:49;;;;;;;8.03;3.00;;;19.40;99.90;;;;;;5053319;28;20445;-72
2022/09/19 11:32:34;;;;;;;7.97;3.90;;;19.50;99.90;;;;;;5050796;28;20508;-72
2022/09/19 11:35:07;;;;;;;5.93;3.63;;;19.60;99.90;;;;;;5054078;28;20491;-72
2022/09/19 11:37:45;;;;;;;5.23;2.80;;;19.70;99.90;;;;;;5054159;28;20466;-72
2022/09/19 11:40:26;;;;;;;7.43;2.90;;;19.60;99.90;;;;;;5053199;28;20436;-72
2022/09/19 11:43:06;;;;;;;13.03;2.93;;;19.20;99.90;;;;;;5054082;28;20485;-72
2022/09/19 11:45:38;;;;;;;6.37;2.60;;;18.90;99.90;;;;;;5053923;28;20532;-72
2022/09/19 11:48:24;;;;;;;7.03;3.00;;;18.50;99.90;;;;;;5053430;28;20447;-72
2022/09/19 11:51:00;;;;;;;8.90;3.10;;;18.40;99.90;;;;;;5047574;28;20424;-72
2022/09/19 11:53:43;;;;;;;9.60;2.70;;;18.70;99.90;;;;;;5053392;28;20469;-73
2022/09/19 11:56:35;;;;;;;5.73;2.43;;;18.70;99.90;;;;;;5053364;28;20477;-72
2022/09/19 11:59:17;;;;;;;6.07;2.10;;;18.80;99.90;;;;;;5048242;28;20574;-72
2022/09/19 12:01:54;;;;;;;6.00;2.20;;;18.80;99.90;;;;;;5054037;28;20430;-72
2022/09/19 12:04:35;;;;;;;8.27;2.80;;;18.80;99.90;;;;;;5053116;28;20440;-72
2022/09/19 12:07:18;;;;;;;10.80;2.40;;;18.60;99.90;;;;;;5053775;28;20457;-72
2022/09/19 12:09:49;;;;;;;7.07;2.40;;;18.90;99.90;;;;;;5053459;28;20528;-71
2022/09/19 12:12:18;;;;;;;5.17;2.60;;;19.40;99.90;;;;;;5053932;28;20423;-72
2022/09/19 12:14:50;;;;;;;5.97;2.50;;;19.80;99.90;;;;;;5052887;28;21025;-71
2022/09/19 12:17:22;;;;;;;9.63;3.20;;;19.80;99.90;;;;;;5053404;28;20507;-72
2022/09/19 12:19:52;;;;;;;7.25;2.00;;;20.10;99.90;;;;;;5051773;28;20521;-77
2022/09/19 12:22:23;;;;;;;7.60;2.17;;;20.70;99.90;;;;;;5052858;28;20254;-76
2022/09/19 12:24:53;;;;;;;9.93;2.90;;;20.90;99.90;;;;;;5052694;28;20993;-77
2022/09/19 12:27:29;;;;;;;6.23;2.60;;;20.90;99.90;;;;;;5051272;28;20535;-77
2022/09/19 12:30:05;;;;;;;11.13;2.17;;;20.90;99.90;;;;;;5045747;28;20456;-76
2022/09/19 12:32:38;;;;;;;5.90;2.57;;;21.20;99.90;;;;;;5051977;28;20972;-76
2022/09/19 12:35:15;;;;;;;6.13;2.43;;;21.20;99.90;;;;;;5052433;28;20996;-76
2022/09/19 12:37:50;;;;;;;5.43;2.30;;;20.90;99.90;;;;;;5052132;28;20457;-76
2022/09/19 12:40:28;;;;;;;4.67;2.40;;;21.20;99.90;;;;;;5051926;28;20960;-76
2022/09/19 12:43:01;;;;;;;7.37;2.47;;;21.30;99.90;;;;;;5051918;28;20960;-77
2022/09/19 12:45:35;;;;;;;6.23;2.30;;;21.30;99.90;;;;;;5051222;28;20456;-76
2022/09/19 12:48:10;;;;;;;9.00;2.60;;;21.30;99.90;;;;;;5052356;28;20565;-76
2022/09/19 12:50:42;;;;;;;10.33;2.20;;;21.20;99.90;;;;;;5051883;28;20454;-75
2022/09/19 12:53:21;;;;;;;4.10;2.13;;;21.30;99.90;;;;;;5051275;28;21072;-76
2022/09/19 12:56:00;;;;;;;9.33;3.33;;;21.40;99.90;;;;;;5050716;28;20485;-77
2022/09/19 12:58:32;;;;;;;4.50;2.23;;;20.70;99.90;;;;;;5050535;28;20424;-77
2022/09/19 13:01:14;;;;;;;4.50;2.40;;;19.70;99.90;;;;;;5053090;28;20436;-76
2022/09/19 13:03:45;;;;;;;8.47;2.20;;;19.70;99.90;;;;;;5052289;28;20459;-77
2022/09/19 13:06:17;;;;;;;4.30;2.47;;;20.10;99.90;;;;;;5052733;28;20515;-77
2022/09/19 13:08:49;;;;;;;4.27;1.87;;;20.50;99.90;;;;;;5052929;28;20858;-76
2022/09/19 13:11:21;;;;;;;10.40;2.30;;;20.80;99.90;;;;;;5051566;28;20505;-75
2022/09/19 13:13:51;;;;;;;10.73;2.67;;;20.90;99.90;;;;;;5053043;28;20983;-76
2022/09/19 13:16:23;;;;;;;4.53;2.47;;;20.90;99.90;;;;;;5052014;28;20480;-75
2022/09/19 13:24:30;;;;;;;6.47;2.53;;;19.50;99.90;;;;;;5052302;28;20819;-70
2022/09/19 13:26:57;;;;;;;4.60;2.40;;;19.40;99.90;;;;;;5052457;28;20431;-70
2022/09/19 13:29:45;;;;;;;4.57;2.10;;;19.30;99.90;;;;;;5052552;28;20428;-70
2022/09/19 13:32:34;;;;;;;7.53;2.33;;;19.70;99.90;;;;;;5052671;28;20475;-70
2022/09/19 13:35:18;;;;;;;8.97;2.60;;;19.90;99.90;;;;;;5051018;28;20827;-70